sensor_id;sensor_type;location;lat;lon;timestamp;P1;durP1;ratioP1;P2;durP2;ratioP2
75297;SDS011;63896;45.990;18.688;2022-09-28T07:46:13;18.42;;;3.70;;
75297;SDS011;63896;45.990;18.688;2022-09-28T07:49:34;16.63;;;3.50;;
75297;SDS011;63896;45.990;18.688;2022-09-28T07:52:59;10.75;;;2.67;;
75297;SDS011;63896;45.990;18.688;2022-09-28T07:56:05;11.90;;;2.50;;
75297;SDS011;63896;45.990;18.688;2022-09-28T07:59:35;29.23;;;4.20;;
75297;SDS011;63896;45.990;18.688;2022-09-28T08:03:10;29.08;;;4.70;;
75297;SDS011;63896;45.990;18.688;2022-09-28T08:06:14;27.92;;;4.45;;
75297;SDS011;63896;45.990;18.688;2022-09-28T08:09:18;31.85;;;4.53;;
75297;SDS011;63896;45.990;18.688;2022-09-28T08:12:39;22.58;;;4.03;;
75297;SDS011;63896;45.990;18.688;2022-09-28T08:16:14;26.30;;;3.30;;
75297;SDS011;63896;45.990;18.688;2022-09-28T08:19:52;21.98;;;3.55;;
75297;SDS011;63896;45.990;18.688;2022-09-28T08:23:14;21.75;;;3.40;;
75297;SDS011;63896;45.990;18.688;2022-09-28T08:26:16;20.30;;;3.00;;
75297;SDS011;63896;45.990;18.688;2022-09-28T08:29:19;20.63;;;3.38;;
75297;SDS011;63896;45.990;18.688;2022-09-28T08:32:25;22.73;;;2.87;;
75297;SDS011;63896;45.990;18.688;2022-09-28T08:35:45;16.42;;;3.10;;
75297;SDS011;63896;45.990;18.688;2022-09-28T08:38:55;13.98;;;2.55;;
75297;SDS011;63896;45.990;18.688;2022-09-28T08:45:32;11.23;;;2.00;;
75297;SDS011;63896;45.990;18.688;2022-09-28T08:49:12;17.93;;;2.23;;
75297;SDS011;63896;45.990;18.688;2022-09-28T08:52:51;18.05;;;2.10;;
75297;SDS011;63896;45.990;18.688;2022-09-28T08:56:29;12.07;;;2.33;;
75297;SDS011;63896;45.990;18.688;2022-09-28T08:59:54;12.95;;;1.98;;
75297;SDS011;63896;45.990;18.688;2022-09-28T09:03:11;17.85;;;2.20;;
75297;SDS011;63896;45.990;18.688;2022-09-28T09:06:34;13.73;;;2.27;;
75297;SDS011;63896;45.990;18.688;2022-09-28T09:25:57;8.63;;;1.60;;
75297;SDS011;63896;45.990;18.688;2022-09-28T09:36:06;11.83;;;1.50;;
75297;SDS011;63896;45.990;18.688;2022-09-28T09:47:15;7.18;;;1.30;;
75297;SDS011;63896;45.990;18.688;2022-09-28T09:50:44;7.22;;;1.40;;
75297;SDS011;63896;45.990;18.688;2022-09-28T09:53:57;7.57;;;1.40;;
75297;SDS011;63896;45.990;18.688;2022-09-28T09:57:12;6.15;;;1.10;;
75297;SDS011;63896;45.990;18.688;2022-09-28T10:00:45;6.78;;;1.10;;
75297;SDS011;63896;45.990;18.688;2022-09-28T10:04:20;5.15;;;1.40;;
75297;SDS011;63896;45.990;18.688;2022-09-28T10:07:42;7.43;;;1.00;;
75297;SDS011;63896;45.990;18.688;2022-09-28T10:14:23;10.32;;;1.45;;
75297;SDS011;63896;45.990;18.688;2022-09-28T10:17:39;4.13;;;1.02;;
75297;SDS011;63896;45.990;18.688;2022-09-28T10:21:22;5.85;;;1.00;;
75297;SDS011;63896;45.990;18.688;2022-09-28T10:27:46;8.17;;;1.23;;
75297;SDS011;63896;45.990;18.688;2022-09-28T10:31:05;10.27;;;1.27;;
75297;SDS011;63896;45.990;18.688;2022-09-28T10:34:41;4.68;;;1.13;;
75297;SDS011;63896;45.990;18.688;2022-09-28T10:38:12;10.40;;;1.10;;
75297;SDS011;63896;45.990;18.688;2022-09-28T10:41:21;7.40;;;1.10;;
75297;SDS011;63896;45.990;18.688;2022-09-28T10:44:31;8.60;;;1.27;;
75297;SDS011;63896;45.990;18.688;2022-09-28T10:47:48;8.77;;;1.08;;
75297;SDS011;63896;45.990;18.688;2022-09-28T10:50:59;11.45;;;1.08;;
75297;SDS011;63896;45.990;18.688;2022-09-28T10:54:12;5.57;;;0.77;;
75297;SDS011;63896;45.990;18.688;2022-09-28T10:57:34;6.03;;;0.82;;
75297;SDS011;63896;45.990;18.688;2022-09-28T11:00:43;6.53;;;0.90;;
75297;SDS011;63896;45.990;18.688;2022-09-28T11:06:57;1.95;;;0.80;;
75297;SDS011;63896;45.990;18.688;2022-09-28T11:10:03;6.20;;;1.13;;
75297;SDS011;63896;45.990;18.688;2022-09-28T11:13:08;4.85;;;0.80;;
75297;SDS011;63896;45.990;18.688;2022-09-28T11:16:26;10.73;;;0.90;;
75297;SDS011;63896;45.990;18.688;2022-09-28T11:19:31;2.67;;;0.50;;
75297;SDS011;63896;45.990;18.688;2022-09-28T11:22:37;7.57;;;0.60;;
75297;SDS011;63896;45.990;18.688;2022-09-28T11:26:01;4.20;;;0.60;;
75297;SDS011;63896;45.990;18.688;2022-09-28T11:32:52;4.10;;;0.90;;
75297;SDS011;63896;45.990;18.688;2022-09-28T11:43:34;2.88;;;0.47;;
75297;SDS011;63896;45.990;18.688;2022-09-28T11:50:44;4.33;;;0.80;;
75297;SDS011;63896;45.990;18.688;2022-09-28T11:57:36;6.50;;;0.98;;
75297;SDS011;63896;45.990;18.688;2022-09-28T12:00:48;6.15;;;1.13;;
75297;SDS011;63896;45.990;18.688;2022-09-28T12:04:07;4.43;;;0.50;;
75297;SDS011;63896;45.990;18.688;2022-09-28T12:07:16;8.37;;;0.80;;
75297;SDS011;63896;45.990;18.688;2022-09-28T12:10:46;6.10;;;0.70;;
75297;SDS011;63896;45.990;18.688;2022-09-28T12:14:16;12.55;;;0.65;;
75297;SDS011;63896;45.990;18.688;2022-09-28T12:18:01;10.73;;;0.80;;
75297;SDS011;63896;45.990;18.688;2022-09-28T12:21:14;12.43;;;0.98;;
75297;SDS011;63896;45.990;18.688;2022-09-28T12:24:33;9.57;;;0.70;;
75297;SDS011;63896;45.990;18.688;2022-09-28T12:27:55;11.68;;;1.13;;
75297;SDS011;63896;45.990;18.688;2022-09-28T12:31:18;9.20;;;0.75;;
75297;SDS011;63896;45.990;18.688;2022-09-28T12:34:25;11.65;;;1.02;;
75297;SDS011;63896;45.990;18.688;2022-09-28T12:41:03;17.20;;;1.23;;
75297;SDS011;63896;45.990;18.688;2022-09-28T12:51:14;27.02;;;1.35;;
75297;SDS011;63896;45.990;18.688;2022-09-28T12:57:58;21.03;;;1.57;;
75297;SDS011;63896;45.990;18.688;2022-09-28T13:04:35;11.38;;;1.17;;
75297;SDS011;63896;45.990;18.688;2022-09-28T13:25:04;7.72;;;0.90;;
75297;SDS011;63896;45.990;18.688;2022-09-28T13:28:14;14.10;;;1.35;;
75297;SDS011;63896;45.990;18.688;2022-09-28T13:31:25;14.90;;;1.30;;
75297;SDS011;63896;45.990;18.688;2022-09-28T13:34:39;10.63;;;1.30;;
75297;SDS011;63896;45.990;18.688;2022-09-28T13:37:42;9.35;;;0.90;;
75297;SDS011;63896;45.990;18.688;2022-09-28T13:41:08;7.70;;;0.93;;
75297;SDS011;63896;45.990;18.688;2022-09-28T13:47:20;10.97;;;1.17;;
75297;SDS011;63896;45.990;18.688;2022-09-28T13:54:19;9.98;;;1.10;;
75297;SDS011;63896;45.990;18.688;2022-09-28T13:57:51;10.32;;;1.20;;
75297;SDS011;63896;45.990;18.688;2022-09-28T14:01:04;10.45;;;1.40;;
75297;SDS011;63896;45.990;18.688;2022-09-28T14:14:11;7.63;;;0.88;;
75297;SDS011;63896;45.990;18.688;2022-09-28T14:17:44;7.03;;;1.00;;
75297;SDS011;63896;45.990;18.688;2022-09-28T14:33:26;12.65;;;1.55;;
75297;SDS011;63896;45.990;18.688;2022-09-28T14:36:37;6.20;;;1.10;;
75297;SDS011;63896;45.990;18.688;2022-09-28T14:43:59;6.65;;;1.40;;
75297;SDS011;63896;45.990;18.688;2022-09-28T14:47:23;5.60;;;1.20;;
75297;SDS011;63896;45.990;18.688;2022-09-28T14:50:35;10.35;;;1.30;;
75297;SDS011;63896;45.990;18.688;2022-09-28T14:53:38;8.50;;;1.20;;
75297;SDS011;63896;45.990;18.688;2022-09-28T14:59:53;9.68;;;1.10;;
75297;SDS011;63896;45.990;18.688;2022-09-28T15:03:03;8.57;;;1.17;;
75297;SDS011;63896;45.990;18.688;2022-09-28T15:06:13;5.90;;;1.35;;
75297;SDS011;63896;45.990;18.688;2022-09-28T15:09:33;8.50;;;1.07;;
75297;SDS011;63896;45.990;18.688;2022-09-28T15:12:38;5.05;;;1.10;;
75297;SDS011;63896;45.990;18.688;2022-09-28T15:15:48;5.95;;;1.10;;
75297;SDS011;63896;45.990;18.688;2022-09-28T15:22:12;10.75;;;1.35;;
75297;SDS011;63896;45.990;18.688;2022-09-28T15:25:20;7.83;;;1.27;;
75297;SDS011;63896;45.990;18.688;2022-09-28T15:28:23;6.50;;;1.10;;
75297;SDS011;63896;45.990;18.688;2022-09-28T15:31:27;5.13;;;0.93;;
75297;SDS011;63896;45.990;18.688;2022-09-28T15:34:35;3.03;;;1.15;;
75297;SDS011;63896;45.990;18.688;2022-09-28T15:37:53;4.97;;;1.38;;
75297;SDS011;63896;45.990;18.688;2022-09-28T15:40:56;4.30;;;0.83;;
75297;SDS011;63896;45.990;18.688;2022-09-28T15:47:32;5.93;;;1.13;;
75297;SDS011;63896;45.990;18.688;2022-09-28T15:50:38;11.18;;;1.20;;
75297;SDS011;63896;45.990;18.688;2022-09-28T15:53:54;6.82;;;0.98;;
75297;SDS011;63896;45.990;18.688;2022-09-28T15:57:09;3.90;;;1.07;;
75297;SDS011;63896;45.990;18.688;2022-09-28T16:00:37;6.70;;;1.40;;
75297;SDS011;63896;45.990;18.688;2022-09-28T16:03:41;4.40;;;1.23;;
75297;SDS011;63896;45.990;18.688;2022-09-28T16:06:44;5.22;;;1.20;;
75297;SDS011;63896;45.990;18.688;2022-09-28T16:10:40;3.75;;;1.10;;
75297;SDS011;63896;45.990;18.688;2022-09-28T16:13:43;4.67;;;1.00;;
75297;SDS011;63896;45.990;18.688;2022-09-28T16:17:08;5.43;;;1.10;;
75297;SDS011;63896;45.990;18.688;2022-09-28T16:20:40;6.47;;;1.05;;
75297;SDS011;63896;45.990;18.688;2022-09-28T16:23:47;4.70;;;1.10;;
75297;SDS011;63896;45.990;18.688;2022-09-28T16:33:29;3.65;;;1.00;;
75297;SDS011;63896;45.990;18.688;2022-09-28T16:36:41;5.03;;;1.20;;
75297;SDS011;63896;45.990;18.688;2022-09-28T16:39:47;1.58;;;1.02;;
75297;SDS011;63896;45.990;18.688;2022-09-28T16:42:50;3.78;;;1.00;;
75297;SDS011;63896;45.990;18.688;2022-09-28T16:45:58;6.17;;;1.50;;
75297;SDS011;63896;45.990;18.688;2022-09-28T16:49:02;2.80;;;1.02;;
75297;SDS011;63896;45.990;18.688;2022-09-28T16:52:11;6.45;;;1.50;;
75297;SDS011;63896;45.990;18.688;2022-09-28T16:55:14;6.43;;;1.48;;
75297;SDS011;63896;45.990;18.688;2022-09-28T16:58:37;3.55;;;1.40;;
75297;SDS011;63896;45.990;18.688;2022-09-28T17:01:40;5.87;;;1.50;;
75297;SDS011;63896;45.990;18.688;2022-09-28T17:04:45;4.03;;;1.50;;
75297;SDS011;63896;45.990;18.688;2022-09-28T17:07:54;5.07;;;1.35;;
75297;SDS011;63896;45.990;18.688;2022-09-28T17:11:01;4.90;;;1.52;;
75297;SDS011;63896;45.990;18.688;2022-09-28T17:14:25;4.70;;;1.20;;
75297;SDS011;63896;45.990;18.688;2022-09-28T17:17:28;6.20;;;1.73;;
75297;SDS011;63896;45.990;18.688;2022-09-28T17:20:32;4.82;;;1.17;;
75297;SDS011;63896;45.990;18.688;2022-09-28T17:23:38;3.83;;;1.23;;
75297;SDS011;63896;45.990;18.688;2022-09-28T17:26:41;2.63;;;1.10;;
75297;SDS011;63896;45.990;18.688;2022-09-28T17:29:46;5.65;;;1.40;;
75297;SDS011;63896;45.990;18.688;2022-09-28T17:32:49;5.70;;;1.50;;
75297;SDS011;63896;45.990;18.688;2022-09-28T17:35:56;3.30;;;1.33;;
75297;SDS011;63896;45.990;18.688;2022-09-28T17:39:02;6.00;;;1.60;;
75297;SDS011;63896;45.990;18.688;2022-09-28T17:42:05;4.75;;;2.05;;
75297;SDS011;63896;45.990;18.688;2022-09-28T17:45:08;7.47;;;1.83;;
75297;SDS011;63896;45.990;18.688;2022-09-28T17:48:14;6.17;;;1.90;;
75297;SDS011;63896;45.990;18.688;2022-09-28T17:51:18;4.25;;;1.40;;
75297;SDS011;63896;45.990;18.688;2022-09-28T17:54:21;6.63;;;1.88;;
75297;SDS011;63896;45.990;18.688;2022-09-28T17:57:24;5.68;;;1.90;;
75297;SDS011;63896;45.990;18.688;2022-09-28T18:00:27;3.28;;;1.75;;
75297;SDS011;63896;45.990;18.688;2022-09-28T18:03:30;7.17;;;1.90;;
75297;SDS011;63896;45.990;18.688;2022-09-28T18:06:33;5.95;;;2.10;;
75297;SDS011;63896;45.990;18.688;2022-09-28T18:09:38;4.63;;;2.10;;
75297;SDS011;63896;45.990;18.688;2022-09-28T18:12:41;7.72;;;2.20;;
75297;SDS011;63896;45.990;18.688;2022-09-28T18:15:48;5.93;;;2.08;;
75297;SDS011;63896;45.990;18.688;2022-09-28T18:18:52;6.00;;;2.20;;
75297;SDS011;63896;45.990;18.688;2022-09-28T18:21:55;3.72;;;2.20;;
75297;SDS011;63896;45.990;18.688;2022-09-28T18:24:59;4.43;;;2.40;;
75297;SDS011;63896;45.990;18.688;2022-09-28T18:28:02;7.35;;;2.35;;
75297;SDS011;63896;45.990;18.688;2022-09-28T18:31:06;5.28;;;2.60;;
75297;SDS011;63896;45.990;18.688;2022-09-28T18:34:10;5.30;;;2.50;;
75297;SDS011;63896;45.990;18.688;2022-09-28T18:37:14;6.15;;;2.42;;
75297;SDS011;63896;45.990;18.688;2022-09-28T18:40:17;4.18;;;2.40;;
75297;SDS011;63896;45.990;18.688;2022-09-28T18:43:21;7.47;;;2.20;;
75297;SDS011;63896;45.990;18.688;2022-09-28T18:46:24;4.78;;;2.30;;
75297;SDS011;63896;45.990;18.688;2022-09-28T18:49:29;7.23;;;2.70;;
75297;SDS011;63896;45.990;18.688;2022-09-28T18:52:36;4.72;;;2.50;;
75297;SDS011;63896;45.990;18.688;2022-09-28T18:55:40;4.97;;;2.35;;
75297;SDS011;63896;45.990;18.688;2022-09-28T18:58:44;4.65;;;2.60;;
75297;SDS011;63896;45.990;18.688;2022-09-28T19:01:47;3.72;;;2.40;;
75297;SDS011;63896;45.990;18.688;2022-09-28T19:04:51;5.33;;;2.47;;
75297;SDS011;63896;45.990;18.688;2022-09-28T19:07:54;5.70;;;2.63;;
75297;SDS011;63896;45.990;18.688;2022-09-28T19:11:06;5.13;;;2.63;;
75297;SDS011;63896;45.990;18.688;2022-09-28T19:14:10;4.30;;;2.65;;
75297;SDS011;63896;45.990;18.688;2022-09-28T19:17:16;5.78;;;2.60;;
75297;SDS011;63896;45.990;18.688;2022-09-28T19:20:19;4.33;;;2.60;;
75297;SDS011;63896;45.990;18.688;2022-09-28T19:23:25;6.95;;;2.67;;
75297;SDS011;63896;45.990;18.688;2022-09-28T19:26:28;4.78;;;2.70;;
75297;SDS011;63896;45.990;18.688;2022-09-28T19:29:31;4.28;;;2.40;;
75297;SDS011;63896;45.990;18.688;2022-09-28T19:32:37;4.82;;;2.83;;
75297;SDS011;63896;45.990;18.688;2022-09-28T19:35:40;4.73;;;2.60;;
75297;SDS011;63896;45.990;18.688;2022-09-28T19:38:43;3.83;;;2.50;;
75297;SDS011;63896;45.990;18.688;2022-09-28T19:41:46;4.10;;;2.22;;
75297;SDS011;63896;45.990;18.688;2022-09-28T19:44:52;5.43;;;2.40;;
75297;SDS011;63896;45.990;18.688;2022-09-28T19:47:55;3.58;;;2.58;;
75297;SDS011;63896;45.990;18.688;2022-09-28T19:51:04;6.00;;;3.00;;
75297;SDS011;63896;45.990;18.688;2022-09-28T19:54:08;5.13;;;2.78;;
75297;SDS011;63896;45.990;18.688;2022-09-28T19:57:12;4.22;;;2.65;;
75297;SDS011;63896;45.990;18.688;2022-09-28T20:00:17;5.72;;;3.10;;
75297;SDS011;63896;45.990;18.688;2022-09-28T20:03:20;5.00;;;2.83;;
75297;SDS011;63896;45.990;18.688;2022-09-28T20:06:23;5.83;;;2.93;;
75297;SDS011;63896;45.990;18.688;2022-09-28T20:09:27;4.65;;;3.03;;
75297;SDS011;63896;45.990;18.688;2022-09-28T20:12:29;4.20;;;2.45;;
75297;SDS011;63896;45.990;18.688;2022-09-28T20:15:34;4.28;;;2.90;;
75297;SDS011;63896;45.990;18.688;2022-09-28T20:18:37;4.72;;;3.17;;
75297;SDS011;63896;45.990;18.688;2022-09-28T20:21:41;4.90;;;3.10;;
75297;SDS011;63896;45.990;18.688;2022-09-28T20:24:44;4.30;;;3.10;;
75297;SDS011;63896;45.990;18.688;2022-09-28T20:27:47;5.22;;;3.10;;
75297;SDS011;63896;45.990;18.688;2022-09-28T20:30:49;7.05;;;3.67;;
75297;SDS011;63896;45.990;18.688;2022-09-28T20:33:52;6.40;;;3.30;;
75297;SDS011;63896;45.990;18.688;2022-09-28T20:36:55;5.03;;;3.70;;
75297;SDS011;63896;45.990;18.688;2022-09-28T20:39:58;5.55;;;3.60;;
75297;SDS011;63896;45.990;18.688;2022-09-28T20:43:05;5.55;;;3.40;;
75297;SDS011;63896;45.990;18.688;2022-09-28T20:46:08;5.15;;;3.38;;
75297;SDS011;63896;45.990;18.688;2022-09-28T20:49:12;5.00;;;3.75;;
75297;SDS011;63896;45.990;18.688;2022-09-28T20:52:14;6.73;;;4.10;;
75297;SDS011;63896;45.990;18.688;2022-09-28T20:55:18;7.53;;;3.72;;
75297;SDS011;63896;45.990;18.688;2022-09-28T20:58:21;5.32;;;3.70;;
75297;SDS011;63896;45.990;18.688;2022-09-28T21:01:24;5.43;;;3.72;;
75297;SDS011;63896;45.990;18.688;2022-09-28T21:04:28;5.00;;;3.47;;
75297;SDS011;63896;45.990;18.688;2022-09-28T21:07:31;6.77;;;3.87;;
75297;SDS011;63896;45.990;18.688;2022-09-28T21:10:34;7.30;;;4.30;;
75297;SDS011;63896;45.990;18.688;2022-09-28T21:13:37;5.88;;;4.28;;
75297;SDS011;63896;45.990;18.688;2022-09-28T21:16:42;6.00;;;3.80;;
75297;SDS011;63896;45.990;18.688;2022-09-28T21:19:45;5.82;;;4.60;;
75297;SDS011;63896;45.990;18.688;2022-09-28T21:22:48;6.83;;;4.10;;
75297;SDS011;63896;45.990;18.688;2022-09-28T21:25:59;7.15;;;4.22;;
75297;SDS011;63896;45.990;18.688;2022-09-28T21:29:10;5.75;;;4.18;;
75297;SDS011;63896;45.990;18.688;2022-09-28T21:32:15;6.43;;;3.80;;
75297;SDS011;63896;45.990;18.688;2022-09-28T21:35:18;7.35;;;4.30;;
75297;SDS011;63896;45.990;18.688;2022-09-28T21:38:21;6.23;;;4.20;;
75297;SDS011;63896;45.990;18.688;2022-09-28T21:41:23;5.57;;;4.05;;
75297;SDS011;63896;45.990;18.688;2022-09-28T21:44:26;6.22;;;4.78;;
75297;SDS011;63896;45.990;18.688;2022-09-28T21:47:29;6.85;;;4.30;;
75297;SDS011;63896;45.990;18.688;2022-09-28T21:50:32;6.57;;;4.55;;
75297;SDS011;63896;45.990;18.688;2022-09-28T21:53:35;6.23;;;4.20;;
75297;SDS011;63896;45.990;18.688;2022-09-28T21:56:39;7.45;;;4.40;;
75297;SDS011;63896;45.990;18.688;2022-09-28T21:59:42;7.25;;;4.40;;
75297;SDS011;63896;45.990;18.688;2022-09-28T22:02:44;6.43;;;4.55;;
75297;SDS011;63896;45.990;18.688;2022-09-28T22:05:49;7.15;;;4.40;;
75297;SDS011;63896;45.990;18.688;2022-09-28T22:08:52;6.80;;;4.07;;
75297;SDS011;63896;45.990;18.688;2022-09-28T22:11:55;6.43;;;3.80;;
75297;SDS011;63896;45.990;18.688;2022-09-28T22:14:58;5.80;;;3.95;;
75297;SDS011;63896;45.990;18.688;2022-09-28T22:18:00;5.50;;;4.00;;
75297;SDS011;63896;45.990;18.688;2022-09-28T22:21:04;5.25;;;3.80;;
75297;SDS011;63896;45.990;18.688;2022-09-28T22:24:16;7.27;;;4.40;;
75297;SDS011;63896;45.990;18.688;2022-09-28T22:27:19;6.25;;;4.30;;
75297;SDS011;63896;45.990;18.688;2022-09-28T22:30:21;6.05;;;4.40;;
75297;SDS011;63896;45.990;18.688;2022-09-28T22:33:24;6.38;;;4.00;;
75297;SDS011;63896;45.990;18.688;2022-09-28T22:36:28;6.35;;;4.13;;
75297;SDS011;63896;45.990;18.688;2022-09-28T22:39:30;6.93;;;4.20;;
75297;SDS011;63896;45.990;18.688;2022-09-28T22:42:39;5.80;;;4.10;;
75297;SDS011;63896;45.990;18.688;2022-09-28T22:45:41;8.27;;;4.13;;
75297;SDS011;63896;45.990;18.688;2022-09-28T22:48:48;7.05;;;4.20;;
75297;SDS011;63896;45.990;18.688;2022-09-28T22:51:58;6.05;;;4.32;;
75297;SDS011;63896;45.990;18.688;2022-09-28T22:55:01;7.20;;;4.33;;
75297;SDS011;63896;45.990;18.688;2022-09-28T22:58:04;7.53;;;4.32;;
75297;SDS011;63896;45.990;18.688;2022-09-28T23:01:08;6.53;;;4.30;;
75297;SDS011;63896;45.990;18.688;2022-09-28T23:04:22;5.40;;;4.03;;
75297;SDS011;63896;45.990;18.688;2022-09-28T23:07:25;6.60;;;4.18;;
75297;SDS011;63896;45.990;18.688;2022-09-28T23:10:27;5.60;;;4.30;;
75297;SDS011;63896;45.990;18.688;2022-09-28T23:13:30;7.35;;;4.50;;
75297;SDS011;63896;45.990;18.688;2022-09-28T23:16:33;6.10;;;4.28;;
75297;SDS011;63896;45.990;18.688;2022-09-28T23:19:36;5.63;;;3.92;;
75297;SDS011;63896;45.990;18.688;2022-09-28T23:22:39;5.82;;;4.20;;
75297;SDS011;63896;45.990;18.688;2022-09-28T23:25:41;6.00;;;4.30;;
75297;SDS011;63896;45.990;18.688;2022-09-28T23:28:44;6.05;;;4.30;;
75297;SDS011;63896;45.990;18.688;2022-09-28T23:31:47;6.70;;;4.07;;
75297;SDS011;63896;45.990;18.688;2022-09-28T23:34:50;7.20;;;4.18;;
75297;SDS011;63896;45.990;18.688;2022-09-28T23:37:52;6.13;;;4.20;;
75297;SDS011;63896;45.990;18.688;2022-09-28T23:40:55;6.10;;;4.03;;
75297;SDS011;63896;45.990;18.688;2022-09-28T23:43:58;5.50;;;3.97;;
75297;SDS011;63896;45.990;18.688;2022-09-28T23:47:01;5.43;;;4.10;;
75297;SDS011;63896;45.990;18.688;2022-09-28T23:50:04;5.47;;;4.05;;
75297;SDS011;63896;45.990;18.688;2022-09-28T23:53:08;5.68;;;3.97;;
75297;SDS011;63896;45.990;18.688;2022-09-28T23:56:11;6.20;;;4.07;;
75297;SDS011;63896;45.990;18.688;2022-09-28T23:59:15;4.95;;;3.88;;
